N405DW KPTD-KALB
Flight info
| Callsign | N405DW |
|---|---|
| Flight time | 0h 53m |
| Altitude | 29000 |
| Route | BUGSY |
| Aircraft | HDJT/L-SABDGRWY/H |
Departure
| Time | 2026-05-03 20:46 |
|---|---|
| Airport | Potsdam Municipal Airport Damon Field (KPTD) |
Arrival
| Time | 2026-05-03 21:39 |
|---|---|
| Airport | Albany International Airport (KALB) |
| Time | Latitude | Longitude | Altitude | Speed | Heading |
|---|---|---|---|---|---|
| 2026-05-03 20:20 | 44.67545 | -74.95315 | 474 ft | 0 kts | 313° |
| 2026-05-03 20:24 | 44.67542 | -74.95310 | 474 ft | 3 kts | 313° |
| 2026-05-03 20:24 | 44.67533 | -74.95297 | 474 ft | 0 kts | 313° |
| 2026-05-03 20:39 | 44.67534 | -74.95298 | 474 ft | 0 kts | 313° |
| 2026-05-03 20:39 | 44.67535 | -74.95300 | 474 ft | 0 kts | 295° |
| 2026-05-03 20:40 | 44.67535 | -74.95302 | 474 ft | 4 kts | 288° |
| 2026-05-03 20:40 | 44.67533 | -74.95317 | 474 ft | 0 kts | 223° |
| 2026-05-03 20:42 | 44.67532 | -74.95318 | 474 ft | 1 kts | 213° |
| 2026-05-03 20:42 | 44.67529 | -74.95321 | 472 ft | 0 kts | 213° |
| 2026-05-03 20:42 | 44.67505 | -74.95339 | 473 ft | 7 kts | 190° |
| 2026-05-03 20:43 | 44.67490 | -74.95308 | 469 ft | 9 kts | 62° |
| 2026-05-03 20:43 | 44.67563 | -74.95199 | 474 ft | 22 kts | 45° |
| 2026-05-03 20:43 | 44.67691 | -74.95027 | 473 ft | 25 kts | 45° |
| 2026-05-03 20:43 | 44.67813 | -74.94860 | 471 ft | 24 kts | 44° |
| 2026-05-03 20:44 | 44.67935 | -74.94696 | 472 ft | 26 kts | 43° |
| 2026-05-03 20:44 | 44.68057 | -74.94530 | 472 ft | 20 kts | 44° |
| 2026-05-03 20:44 | 44.68083 | -74.94437 | 472 ft | 5 kts | 121° |
| 2026-05-03 20:44 | 44.68074 | -74.94419 | 472 ft | 0 kts | 133° |
| 2026-05-03 20:45 | 44.68068 | -74.94409 | 472 ft | 9 kts | 133° |
| 2026-05-03 20:45 | 44.68007 | -74.94385 | 473 ft | 11 kts | 222° |
| 2026-05-03 20:45 | 44.67963 | -74.94448 | 474 ft | 36 kts | 224° |
| 2026-05-03 20:45 | 44.67579 | -74.94972 | 483 ft | 114 kts | 224° |
| 2026-05-03 20:46 | 44.66996 | -74.95789 | 1016 ft | 121 kts | 225° |
| 2026-05-03 20:46 | 44.66152 | -74.96157 | 1331 ft | 153 kts | 172° |
| 2026-05-03 20:46 | 44.65294 | -74.95274 | 1650 ft | 157 kts | 127° |
| 2026-05-03 20:46 | 44.65126 | -74.93733 | 1699 ft | 170 kts | 71° |
| 2026-05-03 20:47 | 44.65872 | -74.92540 | 1798 ft | 166 kts | 29° |
| 2026-05-03 20:47 | 44.66842 | -74.91640 | 1928 ft | 168 kts | 26° |
| 2026-05-03 20:47 | 44.67647 | -74.90442 | 2115 ft | 174 kts | 73° |
| 2026-05-03 20:47 | 44.67464 | -74.88756 | 1985 ft | 186 kts | 129° |
| 2026-05-03 20:48 | 44.66426 | -74.88215 | 2118 ft | 158 kts | 202° |
| 2026-05-03 20:48 | 44.65467 | -74.88908 | 2082 ft | 156 kts | 223° |
| 2026-05-03 20:48 | 44.64945 | -74.89600 | 2073 ft | 156 kts | 233° |
| 2026-05-03 20:48 | 44.64333 | -74.90820 | 2169 ft | 151 kts | 243° |
| 2026-05-03 20:49 | 44.63862 | -74.92110 | 2296 ft | 146 kts | 249° |
| 2026-05-03 20:49 | 44.63494 | -74.93467 | 2225 ft | 152 kts | 254° |
| 2026-05-03 20:49 | 44.62935 | -74.94723 | 2250 ft | 159 kts | 221° |
| 2026-05-03 20:49 | 44.61620 | -74.95019 | 2312 ft | 230 kts | 174° |
| 2026-05-03 20:50 | 44.59669 | -74.93408 | 2911 ft | 269 kts | 134° |
| 2026-05-03 20:50 | 44.58885 | -74.91933 | 3166 ft | 286 kts | 128° |
| 2026-05-03 20:50 | 44.57663 | -74.89568 | 3318 ft | 312 kts | 128° |
| 2026-05-03 20:50 | 44.56280 | -74.87195 | 3793 ft | 313 kts | 136° |
| 2026-05-03 20:51 | 44.54729 | -74.85259 | 4521 ft | 285 kts | 144° |
| 2026-05-03 20:51 | 44.53176 | -74.83464 | 4392 ft | 295 kts | 144° |
| 2026-05-03 20:51 | 44.51617 | -74.81653 | 4551 ft | 282 kts | 144° |
| 2026-05-03 20:51 | 44.50113 | -74.79915 | 4877 ft | 274 kts | 144° |
| 2026-05-03 20:52 | 44.48682 | -74.78280 | 5225 ft | 264 kts | 144° |
| 2026-05-03 20:52 | 44.47208 | -74.76629 | 4714 ft | 283 kts | 145° |
| 2026-05-03 20:52 | 44.45631 | -74.74880 | 4527 ft | 287 kts | 144° |
| 2026-05-03 20:52 | 44.44088 | -74.73170 | 4644 ft | 279 kts | 145° |
| 2026-05-03 20:53 | 44.42590 | -74.71505 | 4789 ft | 273 kts | 145° |
| 2026-05-03 20:53 | 44.41156 | -74.69896 | 5068 ft | 243 kts | 145° |
| 2026-05-03 20:53 | 44.39983 | -74.68549 | 5351 ft | 207 kts | 144° |
| 2026-05-03 20:53 | 44.38851 | -74.67261 | 5365 ft | 218 kts | 145° |
| 2026-05-03 20:54 | 44.37643 | -74.65894 | 5369 ft | 228 kts | 145° |
| 2026-05-03 20:54 | 44.35091 | -74.63012 | 5378 ft | 245 kts | 145° |
| 2026-05-03 20:54 | 44.33732 | -74.61489 | 5375 ft | 263 kts | 144° |
| 2026-05-03 20:55 | 44.32353 | -74.59716 | 5377 ft | 269 kts | 135° |
| 2026-05-03 20:55 | 44.31240 | -74.57857 | 5361 ft | 232 kts | 132° |
| 2026-05-03 20:55 | 44.30290 | -74.56206 | 5348 ft | 205 kts | 132° |
| 2026-05-03 20:55 | 44.29442 | -74.54713 | 5352 ft | 192 kts | 132° |
| 2026-05-03 20:56 | 44.28716 | -74.53193 | 5352 ft | 185 kts | 118° |
| 2026-05-03 20:56 | 44.28182 | -74.51574 | 5355 ft | 182 kts | 116° |
| 2026-05-03 20:56 | 44.27655 | -74.49973 | 5349 ft | 180 kts | 117° |
| 2026-05-03 20:56 | 44.27135 | -74.48395 | 5346 ft | 178 kts | 117° |
| 2026-05-03 20:57 | 44.26626 | -74.46838 | 5350 ft | 175 kts | 116° |
| 2026-05-03 20:57 | 44.26124 | -74.45299 | 5340 ft | 171 kts | 117° |
| 2026-05-03 20:57 | 44.25641 | -74.43832 | 5340 ft | 163 kts | 117° |
| 2026-05-03 20:57 | 44.25180 | -74.42423 | 5334 ft | 157 kts | 117° |
| 2026-05-03 20:58 | 44.24719 | -74.41021 | 5413 ft | 162 kts | 117° |
| 2026-05-03 20:58 | 44.24236 | -74.39576 | 5505 ft | 169 kts | 116° |
| 2026-05-03 20:58 | 44.23723 | -74.38031 | 5516 ft | 182 kts | 117° |
| 2026-05-03 20:58 | 44.23164 | -74.36370 | 5513 ft | 196 kts | 117° |
| 2026-05-03 20:59 | 44.22564 | -74.34594 | 5514 ft | 208 kts | 116° |
| 2026-05-03 20:59 | 44.21931 | -74.32727 | 5503 ft | 218 kts | 117° |
| 2026-05-03 20:59 | 44.21264 | -74.30776 | 5511 ft | 227 kts | 117° |
| 2026-05-03 20:59 | 44.20570 | -74.28760 | 5510 ft | 235 kts | 117° |
| 2026-05-03 21:00 | 44.19851 | -74.26683 | 5512 ft | 241 kts | 117° |
| 2026-05-03 21:00 | 44.19382 | -74.25327 | 5503 ft | 219 kts | 117° |
| 2026-05-03 21:00 | 44.18604 | -74.23051 | 5479 ft | 174 kts | 117° |
| 2026-05-03 21:00 | 44.18117 | -74.21616 | 5500 ft | 155 kts | 117° |
| 2026-05-03 21:01 | 44.17665 | -74.20314 | 5500 ft | 157 kts | 117° |
| 2026-05-03 21:01 | 44.17113 | -74.18706 | 5720 ft | 208 kts | 117° |
| 2026-05-03 21:01 | 44.16433 | -74.16745 | 6120 ft | 241 kts | 117° |
| 2026-05-03 21:01 | 44.15652 | -74.14523 | 6457 ft | 268 kts | 118° |
| 2026-05-03 21:02 | 44.14460 | -74.12423 | 6779 ft | 287 kts | 139° |
| 2026-05-03 21:02 | 44.12892 | -74.10552 | 7104 ft | 305 kts | 143° |
| 2026-05-03 21:02 | 44.11237 | -74.08648 | 7420 ft | 320 kts | 142° |
| 2026-05-03 21:02 | 44.09475 | -74.06631 | 7508 ft | 304 kts | 142° |
| 2026-05-03 21:03 | 44.08206 | -74.04832 | 7490 ft | 227 kts | 123° |
| 2026-05-03 21:03 | 44.07532 | -74.03111 | 7488 ft | 192 kts | 117° |
| 2026-05-03 21:03 | 44.06926 | -74.01462 | 7500 ft | 194 kts | 117° |
| 2026-05-03 21:03 | 44.06280 | -73.99710 | 7523 ft | 215 kts | 117° |
| 2026-05-03 21:04 | 44.05559 | -73.97766 | 7530 ft | 236 kts | 117° |
| 2026-05-03 21:04 | 44.04776 | -73.95662 | 7522 ft | 254 kts | 117° |
| 2026-05-03 21:04 | 44.03939 | -73.93428 | 7523 ft | 267 kts | 117° |
| 2026-05-03 21:04 | 44.03063 | -73.91093 | 7522 ft | 278 kts | 117° |
| 2026-05-03 21:05 | 44.02198 | -73.88796 | 7519 ft | 246 kts | 118° |
| 2026-05-03 21:05 | 44.01467 | -73.86858 | 7500 ft | 209 kts | 117° |
| 2026-05-03 21:05 | 44.00832 | -73.85178 | 7492 ft | 186 kts | 117° |
| 2026-05-03 21:05 | 44.00247 | -73.83632 | 7508 ft | 187 kts | 118° |
| 2026-05-03 21:06 | 43.99606 | -73.81938 | 7536 ft | 206 kts | 117° |
| 2026-05-03 21:06 | 43.98920 | -73.80126 | 7531 ft | 218 kts | 118° |
| 2026-05-03 21:06 | 43.98201 | -73.78234 | 7532 ft | 226 kts | 117° |
| 2026-05-03 21:06 | 43.97454 | -73.76267 | 7529 ft | 234 kts | 117° |
| 2026-05-03 21:07 | 43.96687 | -73.74242 | 7525 ft | 240 kts | 117° |
| 2026-05-03 21:07 | 43.95903 | -73.72180 | 7532 ft | 245 kts | 118° |
| 2026-05-03 21:07 | 43.95105 | -73.70080 | 7531 ft | 246 kts | 117° |
| 2026-05-03 21:07 | 43.94303 | -73.67965 | 7531 ft | 252 kts | 117° |
| 2026-05-03 21:08 | 43.93400 | -73.65839 | 7530 ft | 260 kts | 131° |
| 2026-05-03 21:08 | 43.91940 | -73.64379 | 7524 ft | 260 kts | 163° |
| 2026-05-03 21:08 | 43.90179 | -73.64100 | 7532 ft | 255 kts | 193° |
| 2026-05-03 21:08 | 43.88518 | -73.64882 | 7537 ft | 253 kts | 209° |
| 2026-05-03 21:09 | 43.86921 | -73.65935 | 7536 ft | 256 kts | 210° |
| 2026-05-03 21:09 | 43.85254 | -73.67055 | 7536 ft | 284 kts | 210° |
| 2026-05-03 21:09 | 43.83449 | -73.68293 | 7540 ft | 286 kts | 211° |
| 2026-05-03 21:09 | 43.81698 | -73.69483 | 7535 ft | 275 kts | 211° |
| 2026-05-03 21:10 | 43.80007 | -73.70626 | 7526 ft | 267 kts | 211° |
| 2026-05-03 21:10 | 43.78423 | -73.71686 | 7517 ft | 238 kts | 210° |
| 2026-05-03 21:10 | 43.76957 | -73.72662 | 7519 ft | 230 kts | 212° |
| 2026-05-03 21:10 | 43.75536 | -73.73625 | 7521 ft | 225 kts | 212° |
| 2026-05-03 21:11 | 43.74136 | -73.74519 | 7520 ft | 220 kts | 205° |
| 2026-05-03 21:11 | 43.72651 | -73.75023 | 7518 ft | 219 kts | 197° |
| 2026-05-03 21:11 | 43.71179 | -73.75398 | 7520 ft | 214 kts | 193° |
| 2026-05-03 21:11 | 43.69702 | -73.75518 | 7529 ft | 210 kts | 187° |
| 2026-05-03 21:12 | 43.68262 | -73.75539 | 7527 ft | 205 kts | 187° |
| 2026-05-03 21:12 | 43.66858 | -73.75558 | 7522 ft | 197 kts | 186° |
| 2026-05-03 21:12 | 43.65528 | -73.75571 | 7517 ft | 186 kts | 187° |
| 2026-05-03 21:12 | 43.64677 | -73.76532 | 6719 ft | 187 kts | 272° |
| 2026-05-03 21:13 | 43.65430 | -73.77904 | 6400 ft | 213 kts | 338° |
| 2026-05-03 21:13 | 43.67075 | -73.78143 | 6621 ft | 261 kts | 352° |
| 2026-05-03 21:13 | 43.69126 | -73.78318 | 6135 ft | 311 kts | 353° |
| 2026-05-03 21:13 | 43.71117 | -73.78939 | 6175 ft | 284 kts | 324° |
| 2026-05-03 21:14 | 43.72447 | -73.80963 | 5414 ft | 294 kts | 306° |
| 2026-05-03 21:14 | 43.73671 | -73.83331 | 4960 ft | 308 kts | 304° |
| 2026-05-03 21:14 | 43.74826 | -73.85797 | 5139 ft | 301 kts | 301° |
| 2026-05-03 21:14 | 43.75826 | -73.88377 | 5226 ft | 308 kts | 291° |
| 2026-05-03 21:15 | 43.75926 | -73.91233 | 5440 ft | 310 kts | 246° |
| 2026-05-03 21:15 | 43.74214 | -73.92891 | 5171 ft | 293 kts | 192° |
| 2026-05-03 21:15 | 43.72377 | -73.92842 | 4742 ft | 236 kts | 185° |
| 2026-05-03 21:15 | 43.70742 | -73.92796 | 4305 ft | 241 kts | 182° |
| 2026-05-03 21:16 | 43.69046 | -73.92743 | 4159 ft | 250 kts | 193° |
| 2026-05-03 21:16 | 43.67257 | -73.93477 | 4493 ft | 286 kts | 203° |
| 2026-05-03 21:16 | 43.65263 | -73.94375 | 5049 ft | 315 kts | 200° |
| 2026-05-03 21:16 | 43.63132 | -73.95152 | 6040 ft | 324 kts | 198° |
| 2026-05-03 21:17 | 43.60904 | -73.95922 | 6042 ft | 328 kts | 195° |
| 2026-05-03 21:17 | 43.59557 | -73.96034 | 6016 ft | 264 kts | 179° |
| 2026-05-03 21:17 | 43.57419 | -73.95479 | 5507 ft | 212 kts | 172° |
| 2026-05-03 21:17 | 43.56061 | -73.95026 | 5120 ft | 191 kts | 172° |
| 2026-05-03 21:18 | 43.54815 | -73.94600 | 4749 ft | 177 kts | 171° |
| 2026-05-03 21:18 | 43.53507 | -73.94171 | 4436 ft | 214 kts | 172° |
| 2026-05-03 21:18 | 43.51964 | -73.93696 | 4189 ft | 244 kts | 172° |
| 2026-05-03 21:18 | 43.50247 | -73.93188 | 4038 ft | 260 kts | 172° |
| 2026-05-03 21:19 | 43.48463 | -73.92662 | 4029 ft | 264 kts | 171° |
| 2026-05-03 21:19 | 43.46656 | -73.92146 | 4032 ft | 266 kts | 172° |
| 2026-05-03 21:19 | 43.44837 | -73.91622 | 4020 ft | 267 kts | 172° |
| 2026-05-03 21:19 | 43.42992 | -73.91054 | 4026 ft | 269 kts | 172° |
| 2026-05-03 21:20 | 43.41144 | -73.90549 | 4019 ft | 274 kts | 173° |
| 2026-05-03 21:20 | 43.39257 | -73.90031 | 4025 ft | 279 kts | 172° |
| 2026-05-03 21:20 | 43.37337 | -73.89472 | 4026 ft | 286 kts | 171° |
| 2026-05-03 21:20 | 43.35377 | -73.88898 | 4038 ft | 289 kts | 172° |
| 2026-05-03 21:21 | 43.33395 | -73.88332 | 4037 ft | 292 kts | 171° |
| 2026-05-03 21:21 | 43.31396 | -73.87753 | 3989 ft | 294 kts | 172° |
| 2026-05-03 21:21 | 43.29507 | -73.87177 | 4009 ft | 264 kts | 171° |
| 2026-05-03 21:21 | 43.27800 | -73.86663 | 4012 ft | 245 kts | 172° |
| 2026-05-03 21:22 | 43.26169 | -73.86153 | 4009 ft | 231 kts | 171° |
| 2026-05-03 21:22 | 43.24669 | -73.85673 | 4023 ft | 219 kts | 172° |
| 2026-05-03 21:22 | 43.23189 | -73.85195 | 4009 ft | 211 kts | 172° |
| 2026-05-03 21:22 | 43.21819 | -73.84757 | 3930 ft | 201 kts | 172° |
| 2026-05-03 21:23 | 43.21188 | -73.84556 | 3980 ft | 203 kts | 172° |
| 2026-05-03 21:23 | 43.19830 | -73.84125 | 4044 ft | 233 kts | 172° |
| 2026-05-03 21:23 | 43.18085 | -73.83603 | 4049 ft | 281 kts | 172° |
| 2026-05-03 21:23 | 43.16020 | -73.83018 | 4048 ft | 324 kts | 172° |
| 2026-05-03 21:24 | 43.13758 | -73.82395 | 4049 ft | 334 kts | 172° |
| 2026-05-03 21:24 | 43.11525 | -73.81773 | 4001 ft | 314 kts | 172° |
| 2026-05-03 21:24 | 43.09490 | -73.81198 | 4038 ft | 286 kts | 172° |
| 2026-05-03 21:24 | 43.07613 | -73.80661 | 4033 ft | 266 kts | 172° |
| 2026-05-03 21:25 | 43.05854 | -73.80140 | 4032 ft | 251 kts | 172° |
| 2026-05-03 21:25 | 43.04201 | -73.79623 | 4037 ft | 238 kts | 172° |
| 2026-05-03 21:25 | 43.02626 | -73.79127 | 4047 ft | 228 kts | 172° |
| 2026-05-03 21:25 | 43.01107 | -73.78639 | 4038 ft | 219 kts | 173° |
| 2026-05-03 21:26 | 42.99663 | -73.78637 | 4039 ft | 201 kts | 198° |
| 2026-05-03 21:26 | 42.98345 | -73.79112 | 4031 ft | 191 kts | 202° |
| 2026-05-03 21:26 | 42.97098 | -73.79585 | 4037 ft | 181 kts | 204° |
| 2026-05-03 21:26 | 42.95966 | -73.80220 | 4038 ft | 171 kts | 212° |
| 2026-05-03 21:27 | 42.94902 | -73.80894 | 4035 ft | 165 kts | 212° |
| 2026-05-03 21:27 | 42.93873 | -73.81525 | 4028 ft | 159 kts | 212° |
| 2026-05-03 21:27 | 42.92817 | -73.82183 | 4050 ft | 188 kts | 212° |
| 2026-05-03 21:27 | 42.91497 | -73.83049 | 4074 ft | 233 kts | 212° |
| 2026-05-03 21:28 | 42.89921 | -73.84122 | 4064 ft | 272 kts | 212° |
| 2026-05-03 21:28 | 42.88144 | -73.85366 | 4061 ft | 302 kts | 212° |
| 2026-05-03 21:28 | 42.86224 | -73.86743 | 4044 ft | 315 kts | 212° |
| 2026-05-03 21:28 | 42.84285 | -73.88139 | 4033 ft | 314 kts | 212° |
| 2026-05-03 21:29 | 42.82360 | -73.89522 | 4003 ft | 313 kts | 212° |
| 2026-05-03 21:29 | 42.80433 | -73.90886 | 4025 ft | 313 kts | 212° |
| 2026-05-03 21:29 | 42.78495 | -73.92237 | 4042 ft | 313 kts | 211° |
| 2026-05-03 21:29 | 42.76559 | -73.93599 | 4041 ft | 313 kts | 212° |
| 2026-05-03 21:30 | 42.74633 | -73.94956 | 4044 ft | 311 kts | 212° |
| 2026-05-03 21:30 | 42.72711 | -73.96323 | 4043 ft | 313 kts | 212° |
| 2026-05-03 21:30 | 42.70773 | -73.97667 | 4052 ft | 314 kts | 208° |
| 2026-05-03 21:30 | 42.68619 | -73.98302 | 4038 ft | 324 kts | 185° |
| 2026-05-03 21:31 | 42.66393 | -73.97710 | 4024 ft | 333 kts | 161° |
| 2026-05-03 21:31 | 42.64465 | -73.95945 | 4030 ft | 338 kts | 136° |
| 2026-05-03 21:31 | 42.63173 | -73.93291 | 4030 ft | 339 kts | 111° |
| 2026-05-03 21:31 | 42.62637 | -73.90191 | 4065 ft | 338 kts | 96° |
| 2026-05-03 21:32 | 42.62597 | -73.87048 | 4041 ft | 322 kts | 78° |
| 2026-05-03 21:32 | 42.63290 | -73.84558 | 3991 ft | 248 kts | 49° |
| 2026-05-03 21:32 | 42.64439 | -73.83271 | 3970 ft | 198 kts | 17° |
| 2026-05-03 21:32 | 42.65311 | -73.82742 | 3551 ft | 218 kts | 18° |
| 2026-05-03 21:33 | 42.66761 | -73.81855 | 3033 ft | 239 kts | 19° |
| 2026-05-03 21:33 | 42.68331 | -73.80840 | 2353 ft | 259 kts | 20° |
| 2026-05-03 21:33 | 42.69971 | -73.79777 | 2081 ft | 258 kts | 20° |
| 2026-05-03 21:33 | 42.71591 | -73.78689 | 1936 ft | 265 kts | 28° |
| 2026-05-03 21:34 | 42.72567 | -73.76731 | 2172 ft | 238 kts | 73° |
| 2026-05-03 21:34 | 42.72817 | -73.74682 | 1986 ft | 210 kts | 90° |
| 2026-05-03 21:34 | 42.72714 | -73.72763 | 1580 ft | 197 kts | 91° |
| 2026-05-03 21:34 | 42.72610 | -73.70965 | 1188 ft | 186 kts | 93° |
| 2026-05-03 21:35 | 42.72498 | -73.69275 | 965 ft | 172 kts | 93° |
| 2026-05-03 21:35 | 42.72380 | -73.67913 | 1018 ft | 130 kts | 95° |
| 2026-05-03 21:35 | 42.72322 | -73.66600 | 950 ft | 145 kts | 69° |
| 2026-05-03 21:35 | 42.72929 | -73.65478 | 1075 ft | 148 kts | 27° |
| 2026-05-03 21:36 | 42.73881 | -73.65127 | 1140 ft | 143 kts | 356° |
| 2026-05-03 21:36 | 42.74869 | -73.65106 | 1208 ft | 142 kts | 352° |
| 2026-05-03 21:36 | 42.75834 | -73.65342 | 1292 ft | 145 kts | 323° |
| 2026-05-03 21:36 | 42.76286 | -73.66515 | 1294 ft | 153 kts | 268° |
| 2026-05-03 21:37 | 42.76028 | -73.67948 | 1249 ft | 160 kts | 257° |
| 2026-05-03 21:37 | 42.75590 | -73.69294 | 1158 ft | 154 kts | 241° |
| 2026-05-03 21:37 | 42.75219 | -73.70628 | 923 ft | 153 kts | 266° |
| 2026-05-03 21:37 | 42.75135 | -73.71991 | 856 ft | 139 kts | 272° |
| 2026-05-03 21:38 | 42.75108 | -73.73293 | 754 ft | 138 kts | 270° |
| 2026-05-03 21:38 | 42.75083 | -73.74575 | 783 ft | 135 kts | 271° |
| 2026-05-03 21:38 | 42.75040 | -73.75864 | 658 ft | 138 kts | 272° |
| 2026-05-03 21:38 | 42.75013 | -73.77159 | 578 ft | 138 kts | 269° |
| 2026-05-03 21:39 | 42.74983 | -73.78398 | 368 ft | 122 kts | 270° |
| 2026-05-03 21:39 | 42.74962 | -73.79420 | 284 ft | 86 kts | 267° |
| 2026-05-03 21:39 | 42.74947 | -73.79982 | 280 ft | 43 kts | 268° |
| 2026-05-03 21:39 | 42.74858 | -73.80187 | 282 ft | 0 kts | 219° |
| 2026-05-03 21:40 | 42.74840 | -73.80182 | 282 ft | 10 kts | 125° |
| 2026-05-03 21:40 | 42.74832 | -73.80116 | 282 ft | 0 kts | 88° |
| 2026-05-03 21:40 | 42.74833 | -73.80089 | 281 ft | 8 kts | 89° |
| 2026-05-03 21:41 | 42.74836 | -73.79971 | 279 ft | 17 kts | 89° |
| 2026-05-03 21:41 | 42.74839 | -73.79781 | 282 ft | 22 kts | 89° |
| 2026-05-03 21:41 | 42.74839 | -73.79594 | 281 ft | 14 kts | 127° |
| 2026-05-03 21:41 | 42.74770 | -73.79624 | 282 ft | 11 kts | 207° |
| 2026-05-03 21:42 | 42.74712 | -73.79653 | 282 ft | 4 kts | 144° |
| 2026-05-03 21:42 | 42.74712 | -73.79631 | 283 ft | 0 kts | 41° |
| 2026-05-03 21:42 | 42.74758 | -73.79595 | 282 ft | 0 kts | 26° |
| 2026-05-03 21:42 | 42.74786 | -73.79573 | 282 ft | 0 kts | 31° |
| 2026-05-03 21:43 | 42.74782 | -73.79576 | 282 ft | 2 kts | 31° |
| 2026-05-03 21:44 | 42.74767 | -73.79588 | 282 ft | 2 kts | 31° |
| 2026-05-03 21:44 | 42.74752 | -73.79600 | 282 ft | 2 kts | 31° |
| 2026-05-03 21:44 | 42.74745 | -73.79606 | 282 ft | 0 kts | 31° |